Time;durP1;ratioP1;P1;durP2;ratioP2;P2;SDS_P1;SDS_P2;PMS_P1;PMS_P2;Temp;Humidity;BMP_temperature;BMP_pressure;BME280_temperature;BME280_humidity;BME280_pressure;Samples;Min_cycle;Max_cycle;Signal;HPM_P1;HPM_P2
2023/05/13 00:01:37;;;;;;;6.32;4.40;;;;;;;13.04;49.32;98863.25;4970353;28;20026;-72
2023/05/13 00:04:07;;;;;;;10.32;4.80;;;;;;;12.99;49.79;98860.59;4970592;28;20026;-71
2023/05/13 00:06:32;;;;;;;7.75;5.90;;;;;;;12.94;49.87;98859.56;4970858;28;20034;-71
2023/05/13 00:08:58;;;;;;;9.55;6.50;;;;;;;12.89;50.00;98862.41;4983779;28;20455;-70
2023/05/13 00:11:24;;;;;;;9.55;6.50;;;;;;;12.84;49.67;98870.75;4970701;28;20054;-70
2023/05/13 00:13:50;;;;;;;9.35;6.75;;;;;;;12.79;50.11;98863.41;4970851;28;20122;-71
2023/05/13 00:16:15;;;;;;;10.00;6.78;;;;;;;12.75;50.61;98862.38;4971014;28;20030;-71
2023/05/13 00:18:40;;;;;;;9.35;7.07;;;;;;;12.71;50.20;98861.31;4970982;28;20062;-71
2023/05/13 00:21:06;;;;;;;12.00;6.45;;;;;;;12.68;50.31;98864.69;4970986;28;20054;-70
2023/05/13 00:23:31;;;;;;;7.97;6.00;;;;;;;12.64;50.86;98861.69;4970822;28;20110;-71
2023/05/13 00:25:57;;;;;;;9.40;6.72;;;;;;;12.62;50.67;98865.88;4970984;28;20073;-71
2023/05/13 00:28:23;;;;;;;10.38;6.13;;;;;;;12.58;51.20;98862.91;4970920;28;20543;-71
2023/05/13 00:30:48;;;;;;;9.82;6.47;;;;;;;12.54;51.10;98850.88;4970474;28;20019;-71
2023/05/13 00:33:14;;;;;;;10.80;7.05;;;;;;;12.48;51.16;98857.56;4970528;28;20102;-71
2023/05/13 00:35:39;;;;;;;11.63;8.18;;;;;;;12.45;51.28;98860.91;4971210;28;20026;-71
2023/05/13 00:38:05;;;;;;;10.23;7.35;;;;;;;12.40;51.21;98864.56;4970771;28;20495;-71
2023/05/13 00:40:35;;;;;;;11.60;7.35;;;;;;;12.38;51.50;98854.97;4970873;28;20127;-71
2023/05/13 00:43:00;;;;;;;15.90;8.15;;;;;;;12.34;51.45;98863.00;4970710;28;20091;-72
2023/05/13 00:45:26;;;;;;;11.35;7.68;;;;;;;12.28;51.55;98873.25;4970492;28;20035;-70
2023/05/13 00:47:51;;;;;;;12.10;8.10;;;;;;;12.25;51.85;98870.28;4975836;28;20524;-71
2023/05/13 00:50:17;;;;;;;12.15;7.93;;;;;;;12.19;52.12;98862.09;4970509;28;20022;-71
2023/05/13 00:52:43;;;;;;;9.68;7.95;;;;;;;12.16;51.93;98861.91;4970430;28;20069;-71
2023/05/13 00:55:10;;;;;;;13.20;8.55;;;;;;;12.11;52.32;98865.53;4953030;28;20373;-71
2023/05/13 00:57:36;;;;;;;11.07;8.00;;;;;;;12.08;52.02;98871.59;4970396;28;20023;-71
2023/05/13 01:00:04;;;;;;;12.05;8.10;;;;;;;12.03;52.53;98874.41;4970186;28;20067;-71
2023/05/13 01:02:33;;;;;;;13.13;7.93;;;;;;;12.00;52.54;98875.03;4970332;28;20027;-71
2023/05/13 01:05:20;;;;;;;11.17;8.30;;;;;;;11.94;52.07;98873.44;4970176;28;20039;-71
2023/05/13 01:07:59;;;;;;;12.27;8.63;;;;;;;11.91;52.75;98883.91;4970383;28;20062;-71
2023/05/13 01:11:04;;;;;;;12.27;8.93;;;;;;;11.83;52.63;98881.81;4971865;28;20668;-71
2023/05/13 01:13:38;;;;;;;11.98;8.57;;;;;;;11.80;53.09;98887.88;4963149;28;20043;-71
2023/05/13 01:16:15;;;;;;;11.95;8.65;;;;;;;11.78;52.96;98884.63;4970217;28;20564;-72
2023/05/13 01:18:45;;;;;;;11.48;8.65;;;;;;;11.76;53.14;98887.66;4970163;28;20082;-71
2023/05/13 01:21:11;;;;;;;14.00;9.32;;;;;;;11.75;53.04;98888.78;4974447;28;20038;-71
2023/05/13 01:23:37;;;;;;;14.52;9.27;;;;;;;11.74;53.61;98876.16;4970070;28;20030;-71
2023/05/13 01:26:02;;;;;;;14.02;9.68;;;;;;;11.75;53.42;98882.44;4969978;28;20041;-71
2023/05/13 01:28:28;;;;;;;14.05;9.48;;;;;;;11.75;53.58;98882.44;4949270;28;20398;-71
2023/05/13 01:30:55;;;;;;;15.82;10.18;;;;;;;11.76;53.80;98881.34;4980064;28;20048;-71
2023/05/13 01:33:22;;;;;;;14.95;9.48;;;;;;;11.77;54.12;98888.47;4969824;28;20113;-71
2023/05/13 01:35:47;;;;;;;14.55;10.00;;;;;;;11.80;54.17;98893.38;4969926;28;20096;-71
2023/05/13 01:38:14;;;;;;;14.73;10.50;;;;;;;11.79;54.68;98880.75;4969898;28;20030;-71
2023/05/13 01:40:40;;;;;;;16.23;10.60;;;;;;;11.82;54.49;98890.34;4969740;28;20023;-71
2023/05/13 01:43:06;;;;;;;15.20;10.57;;;;;;;11.83;54.48;98883.72;4969693;28;20509;-71
2023/05/13 01:45:32;;;;;;;16.02;10.80;;;;;;;11.85;54.81;98887.00;4965724;28;20038;-70
2023/05/13 01:47:57;;;;;;;16.27;11.40;;;;;;;11.87;54.67;98893.84;4976946;28;20027;-71
2023/05/13 01:50:23;;;;;;;17.20;11.60;;;;;;;11.89;54.92;98891.63;4969945;28;20080;-71
2023/05/13 01:52:48;;;;;;;14.07;9.73;;;;;;;11.90;54.99;98886.94;4969741;28;20030;-71
2023/05/13 01:55:14;;;;;;;18.05;10.40;;;;;;;11.93;54.47;98894.59;4969678;28;20110;-71
2023/05/13 01:57:39;;;;;;;16.77;10.60;;;;;;;11.95;54.88;98889.63;4969634;28;20072;-71
2023/05/13 02:00:05;;;;;;;16.63;10.05;;;;;;;11.95;54.95;98881.38;4969374;28;20050;-71
2023/05/13 02:02:31;;;;;;;12.85;9.82;;;;;;;11.98;54.99;98879.97;4952135;28;20033;-71
2023/05/13 02:04:56;;;;;;;16.02;10.95;;;;;;;12.00;54.77;98883.28;4969336;28;20019;-71
2023/05/13 02:07:22;;;;;;;15.43;10.02;;;;;;;12.01;54.99;98882.97;4969728;28;20037;-71
2023/05/13 02:09:47;;;;;;;13.48;10.15;;;;;;;12.03;55.67;98890.91;4969490;28;20038;-71
2023/05/13 02:12:12;;;;;;;14.52;10.23;;;;;;;12.05;55.39;98884.03;4969563;28;20095;-71
2023/05/13 02:14:38;;;;;;;15.23;10.35;;;;;;;12.07;55.53;98889.22;4969090;28;20035;-71
2023/05/13 02:17:03;;;;;;;13.88;9.98;;;;;;;12.08;55.79;98890.03;4969313;28;20169;-71
2023/05/13 02:19:29;;;;;;;16.10;10.63;;;;;;;12.10;55.57;98894.13;4979503;28;20061;-71
2023/05/13 02:21:54;;;;;;;13.43;10.15;;;;;;;12.10;55.81;98885.06;4969178;28;20169;-70
2023/05/13 02:24:21;;;;;;;14.65;10.88;;;;;;;12.11;55.59;98886.72;4952025;28;20276;-71
2023/05/13 02:26:46;;;;;;;14.88;11.00;;;;;;;12.13;56.07;98890.78;4969132;28;20027;-71
2023/05/13 02:29:12;;;;;;;16.20;10.45;;;;;;;12.16;56.11;98886.66;4969213;28;20027;-71
2023/05/13 02:31:38;;;;;;;14.95;10.90;;;;;;;12.19;55.46;98894.31;4969021;28;20023;-71
2023/05/13 02:34:03;;;;;;;15.57;10.80;;;;;;;12.20;55.55;98883.00;4966438;28;20042;-72
2023/05/13 02:36:28;;;;;;;15.27;11.15;;;;;;;12.22;56.41;98885.47;4968564;28;20027;-71
2023/05/13 02:38:54;;;;;;;16.75;11.43;;;;;;;12.24;55.82;98885.16;4969000;28;20187;-71
2023/05/13 02:41:19;;;;;;;16.00;10.88;;;;;;;12.25;56.04;98882.09;4978639;28;20019;-71
2023/05/13 02:43:44;;;;;;;15.13;11.20;;;;;;;12.27;55.36;98885.38;4968846;28;20088;-71
2023/05/13 02:46:10;;;;;;;14.73;10.82;;;;;;;12.28;56.65;98883.44;4969068;28;20027;-71
2023/05/13 02:48:35;;;;;;;14.52;10.82;;;;;;;12.29;56.02;98887.84;4968920;28;20029;-71
2023/05/13 02:51:01;;;;;;;15.13;11.30;;;;;;;12.29;56.49;98890.59;4951354;28;20140;-71
2023/05/13 02:53:26;;;;;;;15.70;10.70;;;;;;;12.29;56.48;98888.63;4968685;28;20054;-71
2023/05/13 02:55:53;;;;;;;15.43;10.85;;;;;;;12.30;56.66;98892.22;4978198;28;20015;-71
2023/05/13 02:58:18;;;;;;;14.43;10.52;;;;;;;12.31;56.43;98891.91;4968579;28;20019;-71
2023/05/13 03:00:44;;;;;;;16.02;10.75;;;;;;;12.33;56.43;98892.44;4968710;28;20529;-71
2023/05/13 03:03:09;;;;;;;16.45;11.30;;;;;;;12.34;56.49;98885.81;4968845;28;20027;-71
2023/05/13 03:05:34;;;;;;;17.02;10.82;;;;;;;12.34;56.94;98890.50;4968583;28;20759;-70
2023/05/13 03:08:00;;;;;;;16.52;10.80;;;;;;;12.35;56.88;98887.44;4968870;28;20037;-71
2023/05/13 03:10:25;;;;;;;15.07;11.07;;;;;;;12.36;56.41;98888.28;4968689;28;20027;-70
2023/05/13 03:12:51;;;;;;;16.05;11.38;;;;;;;12.36;56.44;98893.78;4976036;28;20041;-71
2023/05/13 03:15:16;;;;;;;15.15;11.25;;;;;;;12.36;57.10;98889.09;4968852;28;20031;-71
2023/05/13 03:17:43;;;;;;;16.63;11.52;;;;;;;12.38;56.70;98888.81;4968505;28;20098;-71
2023/05/13 03:20:09;;;;;;;14.77;10.70;;;;;;;12.37;57.00;98895.41;4968557;28;20053;-71
2023/05/13 03:22:37;;;;;;;17.60;10.90;;;;;;;12.38;57.02;98901.72;4968344;28;20027;-71
2023/05/13 03:25:03;;;;;;;19.33;11.85;;;;;;;12.38;57.13;98899.81;4968217;28;20035;-70
2023/05/13 03:27:29;;;;;;;22.92;13.30;;;;;;;12.39;56.73;98900.59;4973764;28;20096;-71
2023/05/13 03:29:54;;;;;;;20.80;13.75;;;;;;;12.36;56.62;98902.03;4968447;28;20023;-71
2023/05/13 03:32:19;;;;;;;21.90;14.85;;;;;;;12.35;57.04;98897.66;4968403;28;20015;-71
2023/05/13 03:34:45;;;;;;;22.55;14.93;;;;;;;12.33;57.29;98889.69;4950958;28;20124;-71
2023/05/13 03:37:10;;;;;;;23.75;14.77;;;;;;;12.33;57.42;98906.19;4970909;28;20037;-71
2023/05/13 03:39:36;;;;;;;20.08;13.65;;;;;;;12.33;56.89;98908.94;4971706;28;20180;-71
2023/05/13 03:42:01;;;;;;;23.10;13.82;;;;;;;12.34;57.53;98907.81;4988953;28;20362;-71
2023/05/13 03:44:27;;;;;;;22.48;13.30;;;;;;;12.34;57.31;98907.81;4971428;28;20073;-71
2023/05/13 03:46:52;;;;;;;21.25;12.50;;;;;;;12.35;57.13;98914.94;4971705;28;20030;-71
2023/05/13 03:49:18;;;;;;;16.33;11.52;;;;;;;12.34;57.17;98912.50;4971258;28;20051;-71
2023/05/13 03:51:43;;;;;;;15.07;10.85;;;;;;;12.33;57.50;98913.63;4971473;28;20022;-71
2023/05/13 03:54:09;;;;;;;15.95;10.55;;;;;;;12.33;56.96;98913.63;4971260;28;20085;-70
2023/05/13 03:56:34;;;;;;;15.00;9.65;;;;;;;12.31;57.21;98916.66;4982981;28;20032;-71
2023/05/13 03:59:00;;;;;;;16.65;11.95;;;;;;;12.32;57.49;98925.75;4971281;28;20102;-71
2023/05/13 04:01:25;;;;;;;18.52;12.27;;;;;;;12.32;57.49;98920.25;4971376;28;20026;-71
2023/05/13 04:03:51;;;;;;;18.75;11.13;;;;;;;12.32;57.58;98921.03;4971405;28;20026;-71
2023/05/13 04:06:16;;;;;;;15.55;10.60;;;;;;;12.34;57.46;98929.03;4971152;28;20027;-70
2023/05/13 04:08:42;;;;;;;13.25;9.30;;;;;;;12.34;57.74;98929.81;4971225;28;20539;-71
2023/05/13 04:11:07;;;;;;;12.93;9.10;;;;;;;12.34;58.00;98934.53;4971142;28;20027;-71
2023/05/13 04:13:34;;;;;;;13.52;8.88;;;;;;;12.34;57.76;98931.78;4973551;28;20079;-70
2023/05/13 04:15:59;;;;;;;12.68;8.98;;;;;;;12.31;57.50;98933.16;4970980;28;20145;-72
2023/05/13 04:18:25;;;;;;;13.45;9.18;;;;;;;12.31;57.35;98935.91;4971014;28;20136;-71
2023/05/13 04:20:50;;;;;;;13.27;9.63;;;;;;;12.32;57.83;98934.78;4970871;28;20058;-71
2023/05/13 04:23:15;;;;;;;15.75;10.73;;;;;;;12.34;58.14;98940.03;4970975;28;20026;-71
2023/05/13 04:25:41;;;;;;;16.25;10.63;;;;;;;12.36;58.03;98951.53;4970777;28;20373;-71
2023/05/13 04:28:07;;;;;;;16.38;11.65;;;;;;;12.38;58.01;98945.72;4971406;28;20034;-71
2023/05/13 04:30:33;;;;;;;15.80;11.23;;;;;;;12.39;57.70;98950.13;4990612;28;20027;-71
2023/05/13 04:32:58;;;;;;;19.75;11.57;;;;;;;12.41;58.27;98945.16;4970551;28;20035;-70
2023/05/13 04:35:23;;;;;;;18.63;12.05;;;;;;;12.41;58.17;98954.22;4970793;28;20026;-72
2023/05/13 04:37:49;;;;;;;16.33;11.63;;;;;;;12.41;58.02;98961.66;4970455;28;20393;-72
2023/05/13 04:40:14;;;;;;;16.70;11.35;;;;;;;12.44;58.34;98956.34;4970664;28;20023;-71
2023/05/13 04:42:40;;;;;;;20.05;11.35;;;;;;;12.43;58.08;98962.97;4970750;28;20019;-72
2023/05/13 04:45:06;;;;;;;18.20;11.65;;;;;;;12.43;57.91;98959.41;4970913;28;20458;-71
2023/05/13 04:47:34;;;;;;;15.55;11.57;;;;;;;12.43;58.04;98953.91;4972617;28;20038;-72
2023/05/13 04:50:00;;;;;;;16.95;11.00;;;;;;;12.40;58.02;98962.75;4970807;28;20042;-72
2023/05/13 04:52:25;;;;;;;24.55;16.55;;;;;;;12.37;58.21;98966.94;4970456;28;20118;-72
2023/05/13 04:54:51;;;;;;;15.32;11.73;;;;;;;12.34;58.54;98970.28;4970609;28;20524;-72
2023/05/13 04:57:16;;;;;;;21.13;15.18;;;;;;;12.33;58.26;98965.88;4970754;28;20027;-72
2023/05/13 04:59:41;;;;;;;18.10;15.23;;;;;;;12.31;58.44;98965.38;4970220;28;20027;-72
2023/05/13 05:02:07;;;;;;;22.92;20.27;;;;;;;12.31;58.06;98968.13;4989593;28;20436;-72
2023/05/13 05:04:32;;;;;;;16.13;12.75;;;;;;;12.31;58.73;98968.91;4970425;28;20034;-72
2023/05/13 05:06:58;;;;;;;121.93;57.13;;;;;;;12.31;58.47;98968.13;4970249;28;20015;-73
2023/05/13 05:09:23;;;;;;;186.30;84.53;;;;;;;12.35;58.79;98971.91;4970097;28;20034;-72
2023/05/13 05:11:49;;;;;;;82.65;49.55;;;;;;;12.38;58.31;98978.75;4970284;28;20026;-72
2023/05/13 05:14:15;;;;;;;29.58;19.95;;;;;;;12.41;58.87;98976.25;4969984;28;20138;-72
2023/05/13 05:16:40;;;;;;;20.20;14.18;;;;;;;12.43;58.58;98982.22;4970677;28;20031;-72
2023/05/13 05:19:05;;;;;;;18.33;14.60;;;;;;;12.43;58.76;98978.69;4970164;28;20057;-72
2023/05/13 05:21:31;;;;;;;20.13;14.07;;;;;;;12.45;59.44;98984.72;4970386;28;20495;-72
2023/05/13 05:23:58;;;;;;;21.30;13.27;;;;;;;12.48;59.39;98992.38;4969955;28;20035;-72
2023/05/13 05:26:24;;;;;;;19.80;13.45;;;;;;;12.52;59.38;98998.91;4970149;28;20052;-72
2023/05/13 05:28:49;;;;;;;17.40;12.48;;;;;;;12.53;59.33;98989.56;4969922;28;20022;-72
2023/05/13 05:31:14;;;;;;;22.75;16.33;;;;;;;12.56;59.35;98991.72;4969838;28;20080;-71
2023/05/13 05:33:41;;;;;;;20.65;14.35;;;;;;;12.58;59.43;98997.75;4971450;28;20380;-72
2023/05/13 05:36:07;;;;;;;18.45;15.88;;;;;;;12.59;59.30;98996.63;4969892;28;20033;-72
2023/05/13 05:38:32;;;;;;;18.02;13.63;;;;;;;12.61;59.99;98994.41;4969658;28;20123;-72
2023/05/13 05:40:57;;;;;;;17.95;13.30;;;;;;;12.64;59.74;99001.22;4969566;28;20447;-73
2023/05/13 05:43:23;;;;;;;20.25;14.15;;;;;;;12.66;59.55;98994.28;4969641;28;20019;-72
2023/05/13 05:45:48;;;;;;;20.20;14.20;;;;;;;12.70;59.85;98993.72;4969709;28;20049;-72
2023/05/13 05:48:14;;;;;;;19.80;14.73;;;;;;;12.72;59.83;98992.31;4969525;28;20030;-72
2023/05/13 05:50:40;;;;;;;20.25;14.60;;;;;;;12.78;60.21;98998.56;4969520;28;20054;-72
2023/05/13 05:53:06;;;;;;;20.42;15.00;;;;;;;12.82;60.22;98999.59;4977614;28;20029;-71
2023/05/13 05:55:31;;;;;;;23.42;15.75;;;;;;;12.84;59.76;98997.34;4969389;28;20027;-72
2023/05/13 05:58:02;;;;;;;21.50;16.13;;;;;;;12.87;59.92;99006.94;4969439;28;20038;-73
2023/05/13 06:00:28;;;;;;;20.52;15.90;;;;;;;12.91;60.05;99000.56;4968922;28;20142;-72
2023/05/13 06:02:53;;;;;;;23.02;15.95;;;;;;;12.93;60.13;99001.09;4969365;28;20106;-73
2023/05/13 06:05:19;;;;;;;21.65;16.45;;;;;;;12.95;60.17;98998.00;4969274;28;20066;-72
2023/05/13 06:07:44;;;;;;;27.77;19.45;;;;;;;12.98;59.96;99002.94;4969279;28;20019;-73
2023/05/13 06:10:10;;;;;;;21.88;15.55;;;;;;;13.00;60.12;99008.16;4969612;28;20034;-72
2023/05/13 06:12:35;;;;;;;23.58;17.08;;;;;;;13.01;59.94;99005.09;4969571;28;20022;-72
2023/05/13 06:15:01;;;;;;;29.70;19.70;;;;;;;13.05;59.93;99002.53;4975832;28;20059;-72
2023/05/13 06:17:26;;;;;;;27.80;17.95;;;;;;;13.10;59.85;99002.47;4969372;28;20026;-72
2023/05/13 06:19:51;;;;;;;24.60;15.63;;;;;;;13.16;60.13;99011.47;4970259;28;20062;-72
2023/05/13 06:22:17;;;;;;;28.48;19.40;;;;;;;13.21;59.88;99011.41;4970189;28;20076;-73
2023/05/13 06:24:43;;;;;;;18.52;13.90;;;;;;;13.26;60.20;99005.78;4996789;28;20119;-73
2023/05/13 06:27:12;;;;;;;22.52;15.57;;;;;;;13.32;60.30;99001.03;4979933;28;20038;-73
2023/05/13 06:29:38;;;;;;;19.60;14.23;;;;;;;13.37;60.18;99004.50;4987912;28;20472;-73
2023/05/13 06:32:04;;;;;;;20.30;14.25;;;;;;;13.42;60.19;99000.91;5072116;28;20039;-73
2023/05/13 06:34:29;;;;;;;23.98;16.25;;;;;;;13.49;60.29;99004.06;5017268;28;20023;-73
2023/05/13 06:36:55;;;;;;;22.98;15.35;;;;;;;13.58;60.28;99004.19;4970194;28;20031;-73
2023/05/13 06:39:20;;;;;;;22.25;15.95;;;;;;;13.67;60.78;99010.63;4970059;28;20493;-72
2023/05/13 06:41:46;;;;;;;23.92;14.55;;;;;;;13.76;60.15;99004.41;4977921;28;20031;-74
2023/05/13 06:44:11;;;;;;;21.52;13.95;;;;;;;13.87;59.91;99008.63;4969891;28;20031;-72
2023/05/13 06:46:37;;;;;;;20.65;13.98;;;;;;;13.93;60.12;99012.94;4969823;28;20487;-72
2023/05/13 06:49:02;;;;;;;24.52;14.27;;;;;;;13.97;59.94;99016.72;4970287;28;20098;-72
2023/05/13 06:51:27;;;;;;;19.17;12.95;;;;;;;14.03;60.02;99014.66;4970106;28;20111;-71
2023/05/13 06:53:54;;;;;;;22.38;13.98;;;;;;;14.05;59.88;99017.94;4969720;28;20117;-73
2023/05/13 06:56:21;;;;;;;17.77;12.88;;;;;;;14.10;59.78;99012.31;4971834;28;20072;-74
2023/05/13 06:58:48;;;;;;;19.58;12.15;;;;;;;14.20;59.98;99004.97;4970726;28;20039;-71
2023/05/13 07:01:13;;;;;;;18.17;11.13;;;;;;;14.32;60.03;99004.44;4971262;28;20423;-73
2023/05/13 07:03:39;;;;;;;14.82;10.68;;;;;;;14.44;59.70;99005.56;4968587;28;20030;-71
2023/05/13 07:06:04;;;;;;;17.45;12.02;;;;;;;14.57;60.00;99003.09;4979913;28;20035;-72
2023/05/13 07:08:29;;;;;;;15.18;10.20;;;;;;;14.69;59.62;98994.28;4970729;28;20063;-74
2023/05/13 07:10:55;;;;;;;14.75;10.23;;;;;;;14.82;59.43;98995.38;4971933;28;20055;-74
2023/05/13 07:13:21;;;;;;;17.27;10.52;;;;;;;14.93;59.25;98993.19;4972215;28;20128;-72
2023/05/13 07:15:46;;;;;;;12.48;9.63;;;;;;;15.01;58.91;98997.97;4972818;28;20084;-70
2023/05/13 07:18:12;;;;;;;13.88;9.98;;;;;;;15.11;58.99;98989.44;4973344;28;20526;-74
2023/05/13 07:20:37;;;;;;;14.48;10.23;;;;;;;15.23;58.74;98985.31;4973061;28;20027;-70
2023/05/13 07:23:03;;;;;;;16.15;10.60;;;;;;;15.35;58.93;98988.31;4973360;28;20019;-71
2023/05/13 07:25:28;;;;;;;14.95;9.75;;;;;;;15.48;58.24;98984.66;4972756;28;20080;-71
2023/05/13 07:27:53;;;;;;;13.10;9.15;;;;;;;15.56;57.89;98990.56;4972956;28;20088;-71
2023/05/13 07:30:19;;;;;;;12.07;7.57;;;;;;;15.62;57.76;98984.56;4974516;28;20108;-75
2023/05/13 07:32:44;;;;;;;11.38;8.13;;;;;;;15.70;57.46;98982.97;4973096;28;20034;-72
2023/05/13 07:35:10;;;;;;;8.15;6.47;;;;;;;15.76;56.94;98983.66;4973694;28;20400;-71
2023/05/13 07:37:35;;;;;;;9.35;6.15;;;;;;;15.83;56.29;98977.66;4975815;28;20035;-71
2023/05/13 07:40:02;;;;;;;7.80;5.57;;;;;;;15.88;55.71;98983.09;4973409;28;20042;-70
2023/05/13 07:42:28;;;;;;;6.82;4.38;;;;;;;15.97;55.44;98980.34;4971369;28;20111;-70
2023/05/13 07:44:54;;;;;;;5.68;3.78;;;;;;;16.01;54.73;98978.59;4971995;28;20035;-71
2023/05/13 07:47:20;;;;;;;5.88;3.85;;;;;;;16.07;54.34;98983.66;4972108;28;20027;-72
2023/05/13 07:49:45;;;;;;;6.40;4.20;;;;;;;16.12;53.72;98977.16;4977777;28;20113;-71
2023/05/13 07:52:10;;;;;;;9.00;3.95;;;;;;;16.19;53.66;98974.75;5057150;28;20028;-71
2023/05/13 07:54:36;;;;;;;10.05;4.05;;;;;;;16.27;53.42;98970.38;4987045;28;20027;-72
2023/05/13 07:57:02;;;;;;;20.23;9.40;;;;;;;16.34;53.41;98972.66;4972812;28;20111;-73
2023/05/13 07:59:28;;;;;;;10.02;6.35;;;;;;;16.40;52.76;98978.88;4972137;28;20023;-73
2023/05/13 08:01:53;;;;;;;9.65;5.50;;;;;;;16.46;52.31;98972.06;4972239;28;20107;-72
2023/05/13 08:04:19;;;;;;;11.07;7.22;;;;;;;16.52;51.95;98979.88;4975831;28;20034;-75
2023/05/13 08:06:44;;;;;;;5.78;4.40;;;;;;;16.57;51.78;98972.56;4972475;28;20027;-72
2023/05/13 08:09:11;;;;;;;8.32;4.80;;;;;;;16.63;51.12;98974.81;4971383;28;20030;-72
2023/05/13 08:11:37;;;;;;;5.85;3.58;;;;;;;16.70;50.73;98968.00;4972014;28;20022;-72
2023/05/13 08:14:03;;;;;;;4.13;3.60;;;;;;;16.72;50.43;98971.25;4974549;28;20100;-71
2023/05/13 08:16:29;;;;;;;4.38;3.97;;;;;;;16.78;50.63;98967.19;4973368;28;20046;-70
2023/05/13 08:18:54;;;;;;;6.78;3.80;;;;;;;16.82;50.10;98968.16;4972715;28;20054;-71
2023/05/13 08:21:19;;;;;;;5.50;2.85;;;;;;;16.86;49.35;98982.19;4972388;28;20354;-71
2023/05/13 08:23:45;;;;;;;6.15;3.53;;;;;;;16.88;49.69;98980.72;4971362;28;20026;-73
2023/05/13 08:26:10;;;;;;;5.10;3.20;;;;;;;16.91;49.03;98974.50;4971672;28;20030;-72
2023/05/13 08:28:36;;;;;;;6.28;3.28;;;;;;;16.95;49.10;98978.25;4972551;28;20076;-72
2023/05/13 08:31:02;;;;;;;6.60;4.13;;;;;;;17.02;48.66;98977.81;4955870;28;20019;-72
2023/05/13 08:33:31;;;;;;;5.38;3.45;;;;;;;17.05;48.84;98982.72;4978021;28;20069;-72
2023/05/13 08:35:59;;;;;;;3.70;3.20;;;;;;;17.13;48.84;98978.28;4974565;28;20084;-72
2023/05/13 08:38:24;;;;;;;5.63;3.08;;;;;;;17.20;48.57;98977.78;4971066;28;20063;-72
2023/05/13 08:40:49;;;;;;;6.82;3.20;;;;;;;17.24;48.11;98971.28;4974369;28;20058;-72
2023/05/13 08:43:15;;;;;;;3.15;2.50;;;;;;;17.31;48.14;98978.28;4971970;28;20031;-72
2023/05/13 08:45:45;;;;;;;5.10;2.83;;;;;;;17.34;47.42;98977.59;4971737;28;20424;-72
2023/05/13 08:48:13;;;;;;;5.85;2.97;;;;;;;17.40;47.77;98979.06;4972339;28;20118;-72
2023/05/13 08:50:39;;;;;;;4.18;3.10;;;;;;;17.46;47.68;98963.88;4972518;28;20450;-72
2023/05/13 08:53:06;;;;;;;4.93;2.70;;;;;;;17.57;47.80;98969.88;4972588;28;20172;-72
2023/05/13 08:55:32;;;;;;;4.45;2.40;;;;;;;17.63;46.93;98967.75;4972946;28;20062;-71
2023/05/13 08:57:58;;;;;;;3.20;2.28;;;;;;;17.63;46.52;98965.78;4972647;28;20027;-72
2023/05/13 09:00:23;;;;;;;3.83;3.13;;;;;;;17.63;46.41;98974.09;4972676;28;20031;-72
2023/05/13 09:02:49;;;;;;;3.20;2.60;;;;;;;17.64;46.54;98972.16;4972654;28;20054;-72
2023/05/13 09:05:16;;;;;;;3.72;2.13;;;;;;;17.64;46.24;98969.41;4972698;28;20408;-73
2023/05/13 09:07:41;;;;;;;3.17;2.00;;;;;;;17.64;46.02;98972.97;4972889;28;20463;-73
2023/05/13 09:10:07;;;;;;;3.22;2.35;;;;;;;17.71;45.32;98964.16;4972797;28;20031;-72
2023/05/13 09:12:54;;;;;;;4.15;2.80;;;;;;;17.72;45.62;98974.09;4972877;28;20030;-73
2023/05/13 09:15:22;;;;;;;3.25;2.80;;;;;;;17.71;45.28;98972.47;4972465;28;20042;-72
2023/05/13 09:18:09;;;;;;;4.50;2.92;;;;;;;17.76;45.15;98974.25;4972481;28;20419;-72
2023/05/13 09:20:35;;;;;;;3.78;2.30;;;;;;;17.78;45.21;98969.97;4972273;28;20041;-72
2023/05/13 09:23:10;;;;;;;4.57;2.03;;;;;;;17.82;45.52;98970.94;4972295;28;20473;-73
2023/05/13 09:25:36;;;;;;;5.35;4.03;;;;;;;17.84;43.72;98965.88;4972252;28;20042;-72
2023/05/13 09:28:04;;;;;;;4.10;2.60;;;;;;;17.83;44.48;98972.56;4972257;28;20085;-73
2023/05/13 09:30:37;;;;;;;4.20;2.20;;;;;;;17.86;44.68;98965.56;4972292;28;20488;-72
2023/05/13 09:33:06;;;;;;;4.78;2.45;;;;;;;17.90;44.10;98963.75;4972397;28;20042;-72
2023/05/13 09:35:32;;;;;;;;;;;;;;;17.94;44.46;98961.91;4971939;28;20035;-73
2023/05/13 09:37:57;;;;;;;4.78;2.30;;;;;;;17.96;43.82;98969.91;4967866;28;19970;-72
2023/05/13 09:40:23;;;;;;;6.28;2.70;;;;;;;17.99;44.17;98961.75;4971242;28;20065;-73
2023/05/13 09:42:49;;;;;;;3.45;2.50;;;;;;;18.06;43.81;98960.44;4972025;28;20038;-74
2023/05/13 09:45:16;;;;;;;3.85;2.58;;;;;;;18.08;43.88;98961.75;4993767;28;20037;-72
2023/05/13 09:47:42;;;;;;;3.83;2.55;;;;;;;18.19;44.11;98955.78;4971629;28;20062;-72
2023/05/13 09:50:10;;;;;;;3.50;2.20;;;;;;;18.33;43.97;98953.59;4971676;28;20401;-72
2023/05/13 09:52:37;;;;;;;4.45;2.50;;;;;;;18.47;43.79;98956.09;4971552;28;20023;-72
2023/05/13 09:55:04;;;;;;;4.30;2.20;;;;;;;18.63;43.91;98952.75;4971931;28;20023;-72
2023/05/13 09:57:32;;;;;;;4.43;2.50;;;;;;;18.75;43.52;98950.00;4971146;28;20031;-72
2023/05/13 09:59:58;;;;;;;5.10;2.33;;;;;;;18.88;43.51;98948.94;4971343;28;20031;-72
2023/05/13 10:02:25;;;;;;;3.53;2.25;;;;;;;19.00;43.23;98942.66;4971349;28;20491;-72
2023/05/13 10:04:52;;;;;;;2.78;2.10;;;;;;;19.11;42.49;98945.84;4971758;28;20035;-72
2023/05/13 10:07:23;;;;;;;4.32;1.85;;;;;;;19.13;41.93;98949.09;4971464;28;20031;-73
2023/05/13 10:09:56;;;;;;;5.75;2.50;;;;;;;19.15;41.32;98948.72;4971629;28;20496;-73
2023/05/13 10:12:24;;;;;;;4.20;2.10;;;;;;;19.17;41.45;98954.75;4971637;28;20476;-73
2023/05/13 10:14:53;;;;;;;3.28;1.95;;;;;;;19.23;41.40;98947.00;4971390;28;20107;-73
2023/05/13 10:17:20;;;;;;;3.53;2.60;;;;;;;19.22;41.33;98940.66;4971264;28;20504;-73
2023/05/13 10:19:51;;;;;;;3.95;2.08;;;;;;;19.20;40.89;98942.97;4971463;28;20031;-72
2023/05/13 10:22:31;;;;;;;4.10;2.00;;;;;;;19.15;41.04;98940.38;4971523;28;20058;-71
2023/05/13 10:25:01;;;;;;;4.93;2.20;;;;;;;19.05;40.29;98947.19;4970195;28;20031;-72
2023/05/13 10:27:30;;;;;;;3.63;2.13;;;;;;;19.00;40.46;98944.63;4970255;28;20042;-73
2023/05/13 10:29:57;;;;;;;2.83;2.00;;;;;;;19.07;40.99;98939.31;4970541;28;20039;-72
2023/05/13 10:32:25;;;;;;;2.67;2.08;;;;;;;19.21;40.89;98949.31;4969910;28;20182;-72
2023/05/13 10:35:04;;;;;;;3.83;2.08;;;;;;;19.27;40.64;98947.97;4970336;28;20031;-72
2023/05/13 10:37:54;;;;;;;3.80;2.00;;;;;;;19.34;40.19;98951.00;4970430;28;20642;-71
2023/05/13 10:40:43;;;;;;;3.05;2.17;;;;;;;19.34;40.03;98949.03;4970511;28;20083;-73
2023/05/13 10:43:16;;;;;;;5.32;2.35;;;;;;;19.35;40.14;98947.06;4950965;29;20474;-72
2023/05/13 10:45:49;;;;;;;3.33;2.10;;;;;;;19.39;40.08;98948.00;4952443;28;20067;-71
2023/05/13 10:48:16;;;;;;;5.28;2.38;;;;;;;19.45;40.33;98951.38;4954003;29;20114;-70
2023/05/13 10:51:05;;;;;;;4.82;2.08;;;;;;;19.44;39.79;98947.78;4954551;29;20032;-71
2023/05/13 10:53:36;;;;;;;3.22;2.08;;;;;;;19.40;39.77;98946.03;4966312;28;20054;-70
2023/05/13 10:56:06;;;;;;;2.45;1.83;;;;;;;19.37;39.14;98941.97;4973053;28;20039;-70
2023/05/13 10:58:33;;;;;;;4.82;2.38;;;;;;;19.30;38.82;98948.09;4972733;28;20570;-70
2023/05/13 11:01:24;;;;;;;3.42;2.33;;;;;;;19.23;39.16;98947.84;4973220;28;20030;-70
2023/05/13 11:03:54;;;;;;;4.18;2.33;;;;;;;19.26;39.27;98946.31;4972778;28;20493;-70
2023/05/13 11:06:28;;;;;;;3.35;2.58;;;;;;;19.25;38.94;98948.31;4972663;28;20031;-70
2023/05/13 11:08:54;;;;;;;9.05;2.95;;;;;;;19.25;39.01;98953.03;4972769;28;20130;-70
2023/05/13 11:11:20;;;;;;;4.70;2.38;;;;;;;19.22;38.80;98946.22;4972682;28;20019;-70
2023/05/13 11:13:48;;;;;;;6.20;2.55;;;;;;;19.18;38.81;98948.06;4972482;28;20550;-69
2023/05/13 11:16:13;;;;;;;3.33;2.40;;;;;;;19.10;38.79;98946.16;4973337;28;20019;-74
2023/05/13 11:18:39;;;;;;;3.80;2.20;;;;;;;19.04;38.85;98951.94;4973033;28;20027;-72
2023/05/13 11:21:07;;;;;;;5.05;2.40;;;;;;;19.00;39.02;98956.53;4973436;28;20468;-72
2023/05/13 11:23:48;;;;;;;9.05;2.60;;;;;;;19.01;38.72;98955.38;4973344;28;20022;-73